Time;durP1;ratioP1;P1;durP2;ratioP2;P2;SDS_P1;SDS_P2;PMS_P1;PMS_P2;Temp;Humidity;BMP_temperature;BMP_pressure;BME280_temperature;BME280_humidity;BME280_pressure;Samples;Min_cycle;Max_cycle;Signal;HPM_P1;HPM_P2
2023/10/22 00:02:18;;;;;;;17.58;3.92;;;;;;;23.72;30.31;97420.19;10414696;28;20071;-51
2023/10/22 00:07:18;;;;;;;14.02;3.65;;;;;;;23.49;30.58;97388.00;10414600;28;20072;-49
2023/10/22 00:12:17;;;;;;;16.40;4.43;;;;;;;23.74;30.61;97429.75;10414439;28;20577;-49
2023/10/22 00:17:16;;;;;;;12.25;4.13;;;;;;;23.64;30.79;97392.38;10415518;28;20064;-47
2023/10/22 00:22:16;;;;;;;13.27;3.97;;;;;;;23.85;30.78;97448.53;10411199;28;20131;-50
2023/10/22 00:27:15;;;;;;;15.13;4.22;;;;;;;23.66;31.83;97439.97;10411218;28;20087;-50
2023/10/22 00:32:14;;;;;;;13.55;4.00;;;;;;;23.70;31.98;97460.03;10410851;28;20036;-50
2023/10/22 00:37:13;;;;;;;16.65;4.50;;;;;;;23.70;31.82;97459.16;10410671;28;20036;-50
2023/10/22 00:42:12;;;;;;;17.73;4.03;;;;;;;23.64;32.52;97448.00;10410266;28;20454;-50
2023/10/22 00:47:15;;;;;;;17.65;4.22;;;;;;;23.69;32.75;97445.06;10410466;28;20036;-50
2023/10/22 00:52:15;;;;;;;18.35;4.10;;;;;;;23.59;33.99;97436.81;10408528;28;20123;-48
2023/10/22 00:57:15;;;;;;;16.13;4.32;;;;;;;23.40;35.85;97428.22;10409929;28;20076;-49
2023/10/22 01:02:14;;;;;;;14.05;4.22;;;;;;;23.23;37.27;97414.16;10408943;28;20098;-49
2023/10/22 01:07:13;;;;;;;12.85;3.80;;;;;;;22.91;38.16;97383.41;10409487;28;20454;-49
2023/10/22 01:12:12;;;;;;;9.85;3.58;;;;;;;22.80;38.25;97415.75;10409276;28;20025;-50
2023/10/22 01:17:11;;;;;;;11.25;3.55;;;;;;;22.56;38.56;97391.47;10409214;28;20582;-50
2023/10/22 01:22:10;;;;;;;11.10;4.00;;;;;;;22.33;38.38;97390.94;10407433;28;20579;-51
2023/10/22 01:27:09;;;;;;;21.73;4.55;;;;;;;22.18;38.63;97392.63;10408779;28;20040;-49
2023/10/22 01:32:08;;;;;;;13.85;4.03;;;;;;;21.74;38.90;97357.97;10408489;28;20024;-51
2023/10/22 01:37:06;;;;;;;13.65;4.72;;;;;;;21.85;38.68;97391.72;10407305;28;20446;-48
2023/10/22 01:42:05;;;;;;;10.25;4.13;;;;;;;21.75;38.38;97394.00;10408017;28;20035;-50
2023/10/22 01:47:05;;;;;;;10.15;3.83;;;;;;;21.59;38.40;97404.50;10407470;28;20511;-50
2023/10/22 01:52:04;;;;;;;14.45;4.13;;;;;;;21.42;37.69;97378.94;10406644;28;20068;-50
2023/10/22 01:57:03;;;;;;;11.38;3.60;;;;;;;21.37;37.53;97391.53;10366085;28;20071;-47
2023/10/22 02:02:02;;;;;;;12.50;4.07;;;;;;;21.40;37.26;97388.72;10388420;28;20052;-51
2023/10/22 02:07:02;;;;;;;11.95;4.20;;;;;;;21.39;37.12;97397.59;10407280;28;20055;-51
2023/10/22 02:12:00;;;;;;;12.07;3.70;;;;;;;21.32;36.91;97372.44;10388404;28;20072;-49
2023/10/22 02:16:59;;;;;;;10.00;3.58;;;;;;;21.50;36.63;97399.66;10406899;28;20260;-51
2023/10/22 02:21:58;;;;;;;12.93;3.75;;;;;;;21.45;36.35;97362.97;10410097;28;20112;-49
2023/10/22 02:26:57;;;;;;;12.45;4.15;;;;;;;21.43;36.32;97348.13;10409594;28;20060;-50
2023/10/22 02:31:56;;;;;;;11.15;3.55;;;;;;;21.62;36.18;97377.09;10411052;28;20060;-50
2023/10/22 02:36:55;;;;;;;14.65;4.05;;;;;;;21.57;36.22;97363.25;10409228;28;20086;-51
2023/10/22 02:41:54;;;;;;;14.82;4.65;;;;;;;21.59;35.87;97375.44;10409353;28;20108;-49
2023/10/22 02:46:53;;;;;;;14.45;4.53;;;;;;;21.15;36.07;97294.09;10410235;28;20036;-50
2023/10/22 02:51:53;;;;;;;14.32;3.80;;;;;;;21.52;35.99;97352.94;10409403;28;20483;-50
2023/10/22 02:56:52;;;;;;;14.15;3.83;;;;;;;21.57;35.64;97348.28;10409644;28;20530;-48
2023/10/22 03:01:51;;;;;;;13.88;4.07;;;;;;;21.31;35.43;97284.50;10388699;28;20410;-50
2023/10/22 03:06:52;;;;;;;13.10;5.05;;;;;;;21.47;35.53;97315.38;10408795;28;20098;-49
2023/10/22 03:11:51;;;;;;;19.58;5.72;;;;;;;21.58;35.70;97328.03;10408640;28;20090;-50
2023/10/22 03:16:50;;;;;;;12.48;4.22;;;;;;;21.53;35.83;97337.03;10396112;28;20123;-50
2023/10/22 03:21:49;;;;;;;16.30;4.57;;;;;;;21.51;35.64;97345.97;10413601;28;20020;-50
2023/10/22 03:26:48;;;;;;;15.30;4.80;;;;;;;21.50;35.84;97326.63;10413134;28;20048;-50
2023/10/22 03:31:48;;;;;;;13.75;4.35;;;;;;;21.45;35.98;97338.34;10372187;28;20112;-50
2023/10/22 03:36:46;;;;;;;16.65;4.82;;;;;;;21.16;35.74;97287.03;10371698;28;20064;-49
2023/10/22 03:41:45;;;;;;;15.73;4.43;;;;;;;21.49;35.78;97340.75;10353258;28;20120;-50
2023/10/22 03:46:46;;;;;;;16.23;3.97;;;;;;;21.47;35.75;97339.13;10371505;28;20037;-48
2023/10/22 03:51:45;;;;;;;15.20;4.43;;;;;;;21.50;35.72;97347.75;10371109;28;20124;-51
2023/10/22 03:56:44;;;;;;;16.80;5.13;;;;;;;21.53;35.96;97350.22;10371613;28;20128;-50
2023/10/22 04:01:43;;;;;;;9.25;3.35;;;;;;;21.54;35.65;97337.88;10390325;28;20543;-47
2023/10/22 04:06:42;;;;;;;14.70;4.05;;;;;;;21.68;35.70;97351.19;10389123;28;20591;-49
2023/10/22 04:11:41;;;;;;;13.35;4.38;;;;;;;21.73;35.85;97350.97;10411471;28;20502;-50
2023/10/22 04:16:40;;;;;;;16.98;4.18;;;;;;;21.70;35.71;97330.00;10411791;28;20407;-50
2023/10/22 04:21:39;;;;;;;13.45;4.00;;;;;;;21.84;35.64;97353.91;10411116;28;20036;-51
2023/10/22 04:26:38;;;;;;;13.65;4.38;;;;;;;21.88;35.84;97358.09;10410391;28;20080;-48
2023/10/22 04:31:37;;;;;;;15.30;4.07;;;;;;;21.88;36.02;97362.53;10411357;28;20043;-50
2023/10/22 04:36:36;;;;;;;11.85;3.95;;;;;;;21.83;36.20;97362.78;10410796;28;20139;-51
2023/10/22 04:41:35;;;;;;;18.50;4.05;;;;;;;21.81;36.13;97356.72;10410271;28;20028;-50
2023/10/22 04:46:34;;;;;;;14.52;4.18;;;;;;;21.75;36.13;97367.59;10410503;28;20260;-49
2023/10/22 04:51:33;;;;;;;12.73;3.67;;;;;;;21.69;36.30;97355.56;10410008;28;20976;-48
2023/10/22 04:56:32;;;;;;;16.23;4.07;;;;;;;21.70;36.26;97367.81;10409025;28;20411;-50
2023/10/22 05:01:31;;;;;;;14.90;4.47;;;;;;;21.68;36.27;97366.19;10407737;28;20052;-51
2023/10/22 05:06:30;;;;;;;12.95;3.92;;;;;;;21.76;36.34;97364.88;10368617;28;20053;-51
2023/10/22 05:11:29;;;;;;;19.48;4.18;;;;;;;21.80;36.39;97364.72;10368020;28;20104;-48
2023/10/22 05:16:28;;;;;;;11.52;3.33;;;;;;;21.82;36.42;97374.25;10368095;28;20029;-49
2023/10/22 05:21:27;;;;;;;13.70;4.20;;;;;;;21.97;36.42;97384.03;10371237;28;20028;-49
2023/10/22 05:26:25;;;;;;;14.73;4.05;;;;;;;22.14;36.10;97379.66;10371077;28;20119;-51
2023/10/22 05:31:24;;;;;;;23.58;4.43;;;;;;;22.39;35.88;97373.91;10370560;28;20120;-51
2023/10/22 05:36:24;;;;;;;19.85;4.25;;;;;;;22.60;35.55;97367.44;10372389;28;20500;-49
2023/10/22 05:41:28;;;;;;;17.88;4.00;;;;;;;22.76;35.13;97388.63;10411337;28;20059;-50
2023/10/22 05:46:33;;;;;;;12.38;3.70;;;;;;;22.86;34.77;97402.19;10410203;28;20064;-48
2023/10/22 05:51:32;;;;;;;12.10;4.13;;;;;;;22.93;34.56;97415.91;10393060;28;20091;-51
2023/10/22 05:56:32;;;;;;;20.02;5.07;;;;;;;23.02;34.68;97410.06;10401636;28;20033;-51
2023/10/22 06:01:31;;;;;;;17.67;4.85;;;;;;;22.96;34.82;97410.44;10386863;28;20064;-48
2023/10/22 06:06:30;;;;;;;14.18;4.75;;;;;;;23.01;34.54;97422.47;10410694;28;20036;-51
2023/10/22 06:11:29;;;;;;;14.30;4.50;;;;;;;22.96;34.45;97406.00;10410027;28;20398;-49
2023/10/22 06:16:31;;;;;;;14.55;4.05;;;;;;;23.10;34.65;97433.47;10410113;28;20072;-51
2023/10/22 06:21:30;;;;;;;11.50;3.80;;;;;;;23.17;34.63;97434.84;10406606;28;20107;-48
2023/10/22 06:26:29;;;;;;;18.00;4.72;;;;;;;23.14;34.80;97435.88;10406007;28;20135;-51
2023/10/22 06:31:28;;;;;;;18.52;5.18;;;;;;;23.15;34.92;97432.28;10403594;28;20146;-48
2023/10/22 06:36:27;;;;;;;14.60;4.10;;;;;;;23.15;34.73;97426.97;10405754;28;20039;-51
2023/10/22 06:41:26;;;;;;;50.53;7.57;;;;;;;23.10;35.02;97436.97;10405110;28;20115;-49
2023/10/22 06:46:25;;;;;;;76.80;12.60;;;;;;;22.98;35.17;97449.09;10386675;28;20046;-50
2023/10/22 06:51:24;;;;;;;19.10;5.78;;;;;;;22.97;35.33;97454.47;10404849;28;20136;-50
2023/10/22 06:56:23;;;;;;;35.03;7.30;;;;;;;23.00;34.84;97435.81;10405049;28;20039;-49
2023/10/22 07:01:22;;;;;;;18.90;5.30;;;;;;;23.05;34.86;97432.91;10389943;28;20287;-48
2023/10/22 07:06:21;;;;;;;89.93;12.77;;;;;;;23.14;34.60;97430.56;10405003;28;20455;-49
2023/10/22 07:11:21;;;;;;;46.25;6.85;;;;;;;23.32;34.66;97433.94;10404075;28;20501;-50
2023/10/22 07:16:20;;;;;;;16.73;4.18;;;;;;;23.50;34.09;97437.34;10379865;28;20116;-52
2023/10/22 07:21:18;;;;;;;14.27;4.90;;;;;;;23.72;34.15;97444.88;10363390;28;20112;-51
2023/10/22 07:26:17;;;;;;;15.27;4.75;;;;;;;23.76;34.13;97400.53;10362724;28;20051;-51
2023/10/22 07:31:17;;;;;;;21.83;5.45;;;;;;;24.17;34.15;97445.75;10362460;28;20037;-50
2023/10/22 07:36:16;;;;;;;16.55;5.30;;;;;;;24.31;33.38;97439.63;10382459;28;20084;-51
2023/10/22 07:41:15;;;;;;;13.93;4.55;;;;;;;24.38;33.38;97424.16;10361478;28;20048;-51
2023/10/22 07:46:16;;;;;;;20.48;6.30;;;;;;;24.66;33.25;97444.50;10361044;28;20083;-50
2023/10/22 07:51:17;;;;;;;21.95;5.82;;;;;;;24.70;33.18;97435.41;10343062;28;20128;-49
2023/10/22 07:56:18;;;;;;;13.82;4.60;;;;;;;24.77;32.96;97431.41;10361488;28;20132;-51
2023/10/22 08:01:17;;;;;;;19.83;5.47;;;;;;;24.82;32.98;97447.88;10381213;28;20072;-51
2023/10/22 08:06:16;;;;;;;20.08;5.25;;;;;;;24.94;33.00;97456.06;10414473;28;20720;-51
2023/10/22 08:11:15;;;;;;;25.63;10.02;;;;;;;25.02;32.39;97475.00;10413083;28;20936;-52
2023/10/22 08:16:14;;;;;;;19.02;5.93;;;;;;;25.13;32.74;97471.66;10383896;28;20661;-50
2023/10/22 08:21:14;;;;;;;23.05;5.32;;;;;;;25.23;32.47;97476.28;10412142;28;20034;-49
2023/10/22 08:26:13;;;;;;;17.27;4.72;;;;;;;25.52;32.14;97478.81;10410698;28;20068;-51
2023/10/22 08:31:12;;;;;;;23.17;5.50;;;;;;;25.61;32.28;97466.78;10410144;28;20032;-52
2023/10/22 08:36:11;;;;;;;16.20;4.95;;;;;;;25.56;32.33;97460.91;10409181;28;20103;-52
2023/10/22 08:41:25;;;;;;;15.80;5.43;;;;;;;25.62;32.40;97444.56;10409788;28;20071;-52
2023/10/22 08:46:24;;;;;;;14.82;4.20;;;;;;;25.79;32.09;97440.78;10409332;28;20066;-51
2023/10/22 08:51:24;;;;;;;12.32;4.50;;;;;;;26.20;31.59;97414.00;10409410;28;20048;-49
2023/10/22 08:56:23;;;;;;;16.42;5.22;;;;;;;26.30;31.23;97359.22;10409238;28;20079;-50
2023/10/22 09:01:25;;;;;;;22.08;5.97;;;;;;;26.59;31.00;97337.63;10408621;28;20055;-51
2023/10/22 09:06:24;;;;;;;16.02;4.47;;;;;;;27.06;30.19;97389.25;10409118;28;20127;-51
2023/10/22 09:11:24;;;;;;;14.93;4.68;;;;;;;27.29;29.61;97392.88;10407389;28;20313;-52
2023/10/22 09:16:33;;;;;;;17.17;5.32;;;;;;;27.38;29.67;97408.16;10407233;28;20144;-51
2023/10/22 09:21:43;;;;;;;19.95;4.97;;;;;;;27.61;29.45;97405.59;10407230;28;20598;-52
2023/10/22 09:26:47;;;;;;;18.65;5.30;;;;;;;27.61;28.38;97397.59;10408069;28;20506;-51
2023/10/22 09:31:54;;;;;;;17.08;5.18;;;;;;;27.51;28.04;97394.78;10406413;28;20602;-49
2023/10/22 09:36:57;;;;;;;17.65;5.00;;;;;;;27.42;28.82;97383.00;10407221;28;20076;-49
2023/10/22 09:41:56;;;;;;;20.50;5.60;;;;;;;27.22;28.74;97372.97;10406829;28;20071;-49
2023/10/22 09:46:55;;;;;;;17.65;5.13;;;;;;;27.23;29.02;97371.16;10407355;28;20112;-49
2023/10/22 09:51:58;;;;;;;24.95;6.40;;;;;;;27.09;29.21;97366.84;10406406;28;20123;-52
2023/10/22 09:57:02;;;;;;;23.15;5.82;;;;;;;27.03;28.90;97364.66;10406372;28;20321;-49
2023/10/22 10:02:04;;;;;;;20.42;6.25;;;;;;;27.05;28.88;97362.72;10405769;28;20068;-50
2023/10/22 10:07:03;;;;;;;28.88;6.50;;;;;;;26.78;28.71;97284.75;10405184;28;20422;-49
2023/10/22 10:12:05;;;;;;;22.33;5.60;;;;;;;27.18;29.32;97344.84;10405410;28;20075;-52
2023/10/22 10:17:04;;;;;;;28.05;6.25;;;;;;;27.22;28.89;97343.69;10405382;28;20442;-52
2023/10/22 10:22:04;;;;;;;21.55;6.05;;;;;;;27.39;28.75;97355.72;10408522;28;20060;-48
2023/10/22 10:27:06;;;;;;;27.55;6.45;;;;;;;27.58;28.79;97347.19;10409128;28;20495;-49
2023/10/22 10:32:15;;;;;;;32.30;6.13;;;;;;;27.67;28.54;97359.81;10408351;28;20067;-50
2023/10/22 10:37:15;;;;;;;;;;;;;;;27.72;27.75;97338.13;10409039;28;20068;-51
2023/10/22 10:42:34;;;;;;;32.70;7.28;;;;;;;27.78;27.62;97332.34;10408427;28;19955;-49
2023/10/22 10:47:38;;;;;;;29.58;5.78;;;;;;;27.88;27.40;97313.81;10408880;28;20055;-51
2023/10/22 10:52:37;;;;;;;27.98;6.38;;;;;;;28.01;27.97;97309.19;10406911;28;20076;-53
2023/10/22 10:57:39;;;;;;;25.15;6.18;;;;;;;28.09;27.61;97312.13;10408685;28;20028;-49
2023/10/22 11:02:40;;;;;;;21.38;5.63;;;;;;;27.90;27.50;97247.88;10406542;28;20064;-52
2023/10/22 11:07:42;;;;;;;18.80;5.43;;;;;;;28.36;27.44;97276.19;10381595;28;20526;-50
2023/10/22 11:12:42;;;;;;;27.75;5.65;;;;;;;28.64;27.32;97283.66;10366872;28;20132;-52
2023/10/22 11:17:41;;;;;;;20.95;5.88;;;;;;;28.67;26.95;97280.75;10365851;28;20084;-51
2023/10/22 11:22:40;;;;;;;21.75;4.68;;;;;;;28.73;26.56;97297.25;10362119;28;20151;-52
2023/10/22 11:27:39;;;;;;;20.75;5.28;;;;;;;28.62;26.51;97306.97;10363027;28;20087;-51
2023/10/22 11:32:47;;;;;;;23.05;5.03;;;;;;;28.66;26.60;97289.72;10362889;28;20112;-52
2023/10/22 11:37:46;;;;;;;32.83;5.93;;;;;;;28.57;26.26;97295.81;10367606;28;20674;-48
2023/10/22 11:42:45;;;;;;;25.13;6.03;;;;;;;28.59;26.60;97299.19;10370352;28;20068;-54
2023/10/22 11:47:44;;;;;;;19.80;4.85;;;;;;;28.61;26.32;97289.22;10371209;28;20519;-50
2023/10/22 11:52:46;;;;;;;25.92;5.50;;;;;;;28.62;26.52;97300.78;10369980;28;20032;-51
2023/10/22 11:57:46;;;;;;;22.35;6.28;;;;;;;28.71;26.82;97297.38;10370392;28;20117;-50
2023/10/22 12:02:45;;;;;;;21.92;5.72;;;;;;;28.65;26.47;97285.34;10397288;28;20143;-50
2023/10/22 12:07:44;;;;;;;22.85;4.70;;;;;;;28.57;27.10;97301.16;10411120;28;20058;-49
2023/10/22 12:12:43;;;;;;;22.92;4.80;;;;;;;28.60;26.74;97300.06;10411784;28;20318;-48
2023/10/22 12:17:42;;;;;;;21.67;5.50;;;;;;;28.46;26.77;97310.03;10411070;28;20040;-48
2023/10/22 12:22:41;;;;;;;28.92;5.28;;;;;;;28.42;27.29;97315.72;10410055;28;20584;-50
2023/10/22 12:27:41;;;;;;;22.45;5.95;;;;;;;28.48;27.35;97301.91;10369238;28;20125;-51
2023/10/22 12:32:40;;;;;;;28.48;5.68;;;;;;;28.57;26.80;97306.50;10369237;28;20586;-48
2023/10/22 12:37:39;;;;;;;30.27;6.05;;;;;;;28.61;27.44;97307.91;10368828;28;20514;-48
2023/10/22 12:42:41;;;;;;;27.73;6.50;;;;;;;28.63;26.91;97308.66;10369245;28;20116;-51
2023/10/22 12:47:40;;;;;;;34.95;7.70;;;;;;;28.50;26.61;97270.59;10368177;28;20148;-52
2023/10/22 12:52:39;;;;;;;22.95;7.25;;;;;;;28.54;27.11;97272.03;10369225;28;20074;-52
2023/10/22 12:57:38;;;;;;;26.63;6.28;;;;;;;28.84;26.91;97308.75;10368965;28;20111;-49
2023/10/22 13:02:37;;;;;;;20.92;5.70;;;;;;;28.84;27.24;97313.25;10393290;28;20024;-51
2023/10/22 13:07:36;;;;;;;21.45;5.88;;;;;;;28.82;26.90;97305.34;10409782;28;20155;-51
2023/10/22 13:12:35;;;;;;;25.08;6.30;;;;;;;29.00;27.20;97311.00;10409405;28;20075;-51
2023/10/22 13:17:35;;;;;;;25.08;6.35;;;;;;;29.11;26.99;97303.88;10409600;28;20115;-51
2023/10/22 13:22:34;;;;;;;27.85;6.72;;;;;;;29.26;27.03;97310.66;10411609;28;20068;-50
2023/10/22 13:27:33;;;;;;;24.83;5.85;;;;;;;29.28;26.82;97303.38;10412177;28;20071;-53
2023/10/22 13:32:32;;;;;;;21.13;5.75;;;;;;;29.31;26.80;97310.28;10370828;28;20056;-49
2023/10/22 13:37:31;;;;;;;24.70;5.95;;;;;;;28.99;26.62;97266.56;10370821;28;20039;-50
2023/10/22 13:42:30;;;;;;;22.90;6.22;;;;;;;29.06;26.79;97301.59;10370538;28;20029;-53
2023/10/22 13:47:29;;;;;;;25.55;7.00;;;;;;;29.17;27.00;97308.72;10410463;28;20075;-50
2023/10/22 13:52:28;;;;;;;28.52;6.30;;;;;;;29.09;27.34;97302.22;10411090;28;20036;-50
2023/10/22 13:57:27;;;;;;;28.75;6.80;;;;;;;29.01;27.17;97310.00;10372045;28;20025;-48
2023/10/22 14:02:26;;;;;;;24.35;7.18;;;;;;;28.80;27.25;97301.09;10394745;28;20119;-50
2023/10/22 14:07:25;;;;;;;26.80;6.82;;;;;;;28.65;27.33;97309.38;10410918;28;20041;-49
2023/10/22 14:12:23;;;;;;;28.48;6.28;;;;;;;28.46;27.30;97298.50;10410632;28;20031;-48
2023/10/22 14:17:23;;;;;;;31.15;7.03;;;;;;;28.32;27.66;97296.94;10409365;28;20495;-50
2023/10/22 14:22:22;;;;;;;30.35;7.45;;;;;;;28.27;27.81;97303.63;10407392;28;20063;-50
2023/10/22 14:27:24;;;;;;;31.65;6.85;;;;;;;27.90;28.27;97277.19;10406366;28;20056;-52
2023/10/22 14:32:23;;;;;;;29.75;6.18;;;;;;;28.03;28.69;97312.56;10405650;28;20111;-50
2023/10/22 14:37:22;;;;;;;30.25;6.50;;;;;;;27.78;29.11;97319.84;10406469;28;20090;-51
2023/10/22 14:42:21;;;;;;;30.17;6.32;;;;;;;27.61;28.70;97312.28;10364349;28;20611;-50
2023/10/22 14:47:20;;;;;;;25.17;6.28;;;;;;;27.46;29.35;97321.47;10353972;28;20638;-52
2023/10/22 14:52:18;;;;;;;33.58;7.25;;;;;;;27.24;29.39;97315.09;10365126;28;20392;-53
2023/10/22 14:57:17;;;;;;;31.17;7.28;;;;;;;27.12;29.68;97321.34;10363824;28;20072;-49
2023/10/22 15:02:16;;;;;;;22.40;6.55;;;;;;;26.88;30.47;97332.00;10387237;28;20076;-51
2023/10/22 15:07:15;;;;;;;25.33;6.38;;;;;;;26.63;30.77;97339.13;10405621;28;20132;-49
2023/10/22 15:12:14;;;;;;;31.92;7.93;;;;;;;26.36;31.26;97328.66;10388041;28;20102;-51
2023/10/22 15:17:13;;;;;;;31.40;7.50;;;;;;;26.19;31.45;97353.78;10414119;28;20119;-50
2023/10/22 15:22:12;;;;;;;26.25;6.85;;;;;;;26.02;32.10;97368.25;10372758;28;21334;-49
2023/10/22 15:27:12;;;;;;;41.85;9.57;;;;;;;25.82;32.17;97376.75;10372208;28;20172;-52
2023/10/22 15:32:10;;;;;;;30.50;7.72;;;;;;;25.67;32.66;97379.53;10371658;28;20112;-52
2023/10/22 15:37:09;;;;;;;31.63;8.00;;;;;;;25.57;32.96;97393.53;10371288;28;20107;-50
2023/10/22 15:42:08;;;;;;;33.28;9.27;;;;;;;25.41;33.56;97399.84;10371418;28;20039;-51
2023/10/22 15:47:08;;;;;;;29.30;8.20;;;;;;;25.32;33.73;97400.47;10371957;28;20116;-49
2023/10/22 15:52:07;;;;;;;23.23;6.75;;;;;;;25.30;33.81;97413.84;10370884;28;20121;-52
2023/10/22 15:57:06;;;;;;;31.10;8.07;;;;;;;25.28;34.17;97425.53;10371259;28;20112;-51
2023/10/22 16:02:05;;;;;;;34.00;9.82;;;;;;;25.19;34.52;97439.41;10393440;28;20028;-52
2023/10/22 16:07:05;;;;;;;28.27;7.20;;;;;;;24.73;36.20;97458.25;10411193;28;20071;-52
2023/10/22 16:12:05;;;;;;;28.70;7.28;;;;;;;24.24;37.03;97465.66;10371500;28;20586;-50
2023/10/22 16:17:04;;;;;;;26.17;6.82;;;;;;;24.25;36.51;97479.75;10406947;28;20056;-51
2023/10/22 16:22:06;;;;;;;35.45;7.72;;;;;;;24.19;37.08;97482.78;10410532;28;20590;-51
2023/10/22 16:27:05;;;;;;;33.42;8.02;;;;;;;23.54;37.06;97391.22;10410757;28;20079;-49
2023/10/22 16:32:05;;;;;;;29.95;9.07;;;;;;;24.03;37.46;97488.97;10410303;28;20120;-50
2023/10/22 16:37:04;;;;;;;33.80;8.77;;;;;;;23.84;37.80;97480.41;10411365;28;20502;-51
2023/10/22 16:42:03;;;;;;;28.65;8.27;;;;;;;23.78;38.17;97496.69;10410395;28;20108;-51
2023/10/22 16:47:02;;;;;;;26.65;7.75;;;;;;;23.61;38.41;97502.97;10410205;28;20115;-51
2023/10/22 16:52:01;;;;;;;25.98;7.03;;;;;;;23.46;38.74;97511.75;10409957;28;20064;-50
2023/10/22 16:57:00;;;;;;;27.33;7.40;;;;;;;23.33;39.21;97520.41;10369534;28;20028;-49
2023/10/22 17:01:59;;;;;;;33.10;7.05;;;;;;;23.23;39.35;97530.66;10390782;28;20112;-49
2023/10/22 17:06:58;;;;;;;35.33;8.63;;;;;;;23.19;39.30;97534.41;10409101;28;20127;-48
2023/10/22 17:11:57;;;;;;;27.60;7.93;;;;;;;23.07;39.78;97528.91;10409181;28;20044;-48
2023/10/22 17:17:00;;;;;;;34.08;6.75;;;;;;;22.96;40.03;97533.03;10409601;28;20028;-50
2023/10/22 17:21:59;;;;;;;23.45;6.97;;;;;;;22.83;40.27;97534.63;10408608;28;20128;-52
2023/10/22 17:26:59;;;;;;;32.03;8.35;;;;;;;22.73;40.96;97536.88;10408763;28;20062;-50
2023/10/22 17:31:57;;;;;;;30.50;8.07;;;;;;;22.50;41.77;97547.81;10407966;28;20071;-52
2023/10/22 17:36:56;;;;;;;27.75;8.07;;;;;;;22.15;42.63;97542.56;10407623;28;20114;-51
2023/10/22 17:41:55;;;;;;;28.73;9.50;;;;;;;22.11;42.40;97539.25;10408336;28;20052;-53
2023/10/22 17:46:54;;;;;;;29.85;8.07;;;;;;;22.06;42.21;97541.28;10407779;28;20475;-50
2023/10/22 17:51:53;;;;;;;28.35;10.00;;;;;;;22.00;42.53;97543.38;10406811;28;20521;-52
2023/10/22 17:56:52;;;;;;;27.70;8.68;;;;;;;21.89;43.01;97555.28;10408358;28;20028;-49
2023/10/22 18:01:51;;;;;;;30.70;8.88;;;;;;;21.75;43.10;97560.38;10406652;28;20043;-50
2023/10/22 18:06:50;;;;;;;47.47;19.15;;;;;;;21.49;43.62;97536.13;10406869;28;20449;-51
2023/10/22 18:11:49;;;;;;;39.17;12.95;;;;;;;21.38;43.78;97554.25;10389317;28;20055;-51
2023/10/22 18:16:48;;;;;;;29.13;10.15;;;;;;;21.24;44.84;97554.06;10406488;28;20133;-50
2023/10/22 18:21:47;;;;;;;32.67;8.80;;;;;;;21.12;44.82;97564.25;10406590;28;20356;-52
2023/10/22 18:26:46;;;;;;;30.50;8.30;;;;;;;21.13;45.09;97587.06;10407288;28;20593;-49
2023/10/22 18:31:45;;;;;;;33.03;11.90;;;;;;;21.02;45.40;97591.97;10405706;28;20139;-51
2023/10/22 18:36:44;;;;;;;37.08;11.93;;;;;;;20.85;46.18;97597.16;10406567;28;20487;-50
2023/10/22 18:41:44;;;;;;;36.58;11.43;;;;;;;20.71;46.86;97605.69;10405701;28;20052;-52
2023/10/22 18:46:43;;;;;;;36.80;11.43;;;;;;;20.59;46.96;97599.19;10405580;28;20492;-50
2023/10/22 18:51:42;;;;;;;47.05;11.35;;;;;;;20.49;47.17;97605.75;10405444;28;20032;-51
2023/10/22 18:56:41;;;;;;;33.22;10.93;;;;;;;20.32;47.59;97608.25;10406467;28;20040;-52
2023/10/22 19:01:41;;;;;;;32.28;9.55;;;;;;;20.13;47.59;97609.00;10403880;28;20021;-52
2023/10/22 19:06:40;;;;;;;35.83;8.82;;;;;;;20.04;48.02;97617.28;10404366;28;20084;-48
2023/10/22 19:11:39;;;;;;;29.08;8.52;;;;;;;19.94;48.46;97614.19;10404905;28;20064;-51
2023/10/22 19:16:38;;;;;;;27.98;8.70;;;;;;;19.81;48.99;97605.94;10405092;28;20123;-50
2023/10/22 19:21:37;;;;;;;26.60;7.70;;;;;;;19.65;49.30;97616.22;10364259;28;20520;-50
2023/10/22 19:26:36;;;;;;;29.75;8.00;;;;;;;19.49;49.71;97616.88;10405372;28;20529;-52
2023/10/22 19:31:37;;;;;;;28.65;7.25;;;;;;;19.39;50.33;97632.13;10404079;28;20032;-50
2023/10/22 19:36:36;;;;;;;33.35;8.32;;;;;;;19.11;51.12;97630.56;10405329;28;20064;-51
2023/10/22 19:41:35;;;;;;;32.40;7.90;;;;;;;18.94;52.16;97631.16;10404739;28;20068;-51
2023/10/22 19:46:34;;;;;;;30.58;8.40;;;;;;;18.92;51.73;97625.09;10404826;28;20111;-51
2023/10/22 19:51:33;;;;;;;31.60;9.02;;;;;;;18.89;51.69;97632.25;10402237;28;20024;-51
2023/10/22 19:56:32;;;;;;;31.13;8.60;;;;;;;18.83;51.96;97628.09;10406582;28;20487;-49
2023/10/22 20:01:31;;;;;;;26.52;7.93;;;;;;;18.76;52.20;97642.34;10387900;28;20016;-49
2023/10/22 20:06:30;;;;;;;30.20;8.50;;;;;;;18.38;54.35;97648.00;10412352;28;20107;-51
2023/10/22 20:11:29;;;;;;;34.28;8.32;;;;;;;18.37;53.95;97640.19;10411503;28;20627;-49
2023/10/22 20:16:28;;;;;;;31.02;8.75;;;;;;;18.28;53.62;97624.75;10411406;28;20035;-50
2023/10/22 20:21:29;;;;;;;30.30;9.05;;;;;;;18.46;54.00;97650.38;10370140;28;20115;-50
2023/10/22 20:26:28;;;;;;;31.08;8.82;;;;;;;18.54;53.73;97658.00;10370141;28;20091;-51
2023/10/22 20:31:27;;;;;;;36.25;9.60;;;;;;;18.61;53.86;97665.59;10369434;28;20041;-49
2023/10/22 20:36:26;;;;;;;34.72;10.77;;;;;;;18.67;53.61;97663.69;10369147;28;20036;-51
2023/10/22 20:41:25;;;;;;;28.38;9.52;;;;;;;18.56;53.54;97643.88;10369042;28;20461;-49
2023/10/22 20:46:24;;;;;;;32.80;10.32;;;;;;;18.58;53.56;97652.56;10369797;28;20025;-51
2023/10/22 20:51:23;;;;;;;30.20;9.02;;;;;;;18.70;53.64;97672.34;10368974;28;20033;-51
2023/10/22 20:56:22;;;;;;;28.77;8.32;;;;;;;18.72;54.16;97670.53;10368784;28;20120;-51
2023/10/22 21:01:23;;;;;;;26.75;8.27;;;;;;;18.64;54.06;97653.28;10384425;28;20419;-51
2023/10/22 21:06:22;;;;;;;25.67;7.85;;;;;;;18.78;54.00;97674.69;10409644;28;20489;-50
2023/10/22 21:11:21;;;;;;;37.30;9.93;;;;;;;18.70;54.32;97674.13;10408547;28;20127;-51
2023/10/22 21:16:20;;;;;;;27.75;8.88;;;;;;;18.68;54.55;97668.03;10408758;28;20386;-48
2023/10/22 21:21:19;;;;;;;27.48;8.55;;;;;;;18.70;54.78;97667.09;10409088;28;20075;-50
2023/10/22 21:26:18;;;;;;;26.63;8.63;;;;;;;18.71;54.64;97670.56;10367403;28;20045;-52
2023/10/22 21:31:17;;;;;;;29.77;8.57;;;;;;;18.75;54.57;97661.66;10367970;28;20039;-49
2023/10/22 21:36:16;;;;;;;31.52;8.85;;;;;;;18.77;55.08;97670.38;10367354;28;20045;-48
2023/10/22 21:41:16;;;;;;;23.50;8.07;;;;;;;18.69;54.86;97647.00;10367583;28;20131;-50
2023/10/22 21:46:15;;;;;;;26.45;7.55;;;;;;;18.77;54.46;97660.72;10367172;28;20069;-49
2023/10/22 21:51:14;;;;;;;26.00;8.38;;;;;;;18.89;54.30;97674.34;10367019;28;20124;-48
2023/10/22 21:56:12;;;;;;;32.05;8.55;;;;;;;18.89;54.04;97669.06;10366358;28;20134;-50
2023/10/22 22:01:13;;;;;;;31.35;8.93;;;;;;;18.86;54.29;97659.53;10382917;28;20131;-49
2023/10/22 22:06:11;;;;;;;33.72;10.65;;;;;;;18.83;54.28;97659.66;10406612;28;20147;-50
2023/10/22 22:11:10;;;;;;;21.55;8.13;;;;;;;18.78;54.36;97649.28;10407032;28;20119;-50
2023/10/22 22:16:09;;;;;;;27.00;8.82;;;;;;;18.74;54.68;97646.81;10405035;28;20115;-50
2023/10/22 22:21:08;;;;;;;28.17;9.20;;;;;;;18.70;55.09;97648.69;10403696;28;20036;-49
2023/10/22 22:26:07;;;;;;;32.78;8.70;;;;;;;18.58;55.47;97649.09;10403181;28;20045;-51
2023/10/22 22:31:06;;;;;;;31.35;9.00;;;;;;;18.60;55.62;97645.50;10405534;28;20032;-49
2023/10/22 22:36:05;;;;;;;29.55;9.30;;;;;;;18.41;56.03;97665.44;10406081;28;20583;-49
2023/10/22 22:41:04;;;;;;;29.85;8.25;;;;;;;18.23;56.34;97666.06;10406415;28;20074;-48
2023/10/22 22:46:03;;;;;;;24.52;8.75;;;;;;;18.12;56.74;97656.75;10406537;28;20028;-49
2023/10/22 22:51:02;;;;;;;33.97;10.85;;;;;;;17.91;57.02;97652.22;10406019;28;20063;-49
2023/10/22 22:56:02;;;;;;;33.08;10.75;;;;;;;17.88;56.89;97652.31;10364562;28;20057;-48